sensor_id;sensor_type;location;lat;lon;timestamp;noise_LAeq;noise_LA_min;noise_LA_max;noise_LA01;noise_LA95
61321;Laerm;17737;52.586;13.284;2022-07-23T00:00:32;50.32;40.96;66.88;;
61321;Laerm;17737;52.586;13.284;2022-07-23T00:03:06;45.97;40.53;58.34;;
61321;Laerm;17737;52.586;13.284;2022-07-23T00:05:34;48.28;41.09;59.66;;
61321;Laerm;17737;52.586;13.284;2022-07-23T00:08:04;50.54;40.61;63.16;;
61321;Laerm;17737;52.586;13.284;2022-07-23T00:10:39;46.85;40.38;60.06;;
61321;Laerm;17737;52.586;13.284;2022-07-23T00:13:07;49.72;41.03;63.90;;
61321;Laerm;17737;52.586;13.284;2022-07-23T00:15:35;46.32;39.71;57.46;;
61321;Laerm;17737;52.586;13.284;2022-07-23T00:18:03;41.71;39.53;45.23;;
61321;Laerm;17737;52.586;13.284;2022-07-23T00:20:33;41.58;39.53;44.54;;
61321;Laerm;17737;52.586;13.284;2022-07-23T00:23:00;41.49;39.33;46.42;;
61321;Laerm;17737;52.586;13.284;2022-07-23T00:25:30;48.52;39.53;63.57;;
61321;Laerm;17737;52.586;13.284;2022-07-23T00:27:59;48.73;39.71;62.88;;
61321;Laerm;17737;52.586;13.284;2022-07-23T00:30:27;57.10;39.43;74.44;;
61321;Laerm;17737;52.586;13.284;2022-07-23T00:32:58;41.46;39.33;44.97;;
61321;Laerm;17737;52.586;13.284;2022-07-23T00:35:30;41.41;39.13;45.66;;
61321;Laerm;17737;52.586;13.284;2022-07-23T00:38:00;49.81;39.33;65.45;;
61321;Laerm;17737;52.586;13.284;2022-07-23T00:40:29;41.68;39.33;45.73;;
61321;Laerm;17737;52.586;13.284;2022-07-23T00:42:57;49.19;39.71;59.98;;
61321;Laerm;17737;52.586;13.284;2022-07-23T00:45:25;49.73;39.89;61.03;;
61321;Laerm;17737;52.586;13.284;2022-07-23T00:47:53;48.68;39.43;60.42;;
61321;Laerm;17737;52.586;13.284;2022-07-23T00:50:21;45.41;39.62;56.88;;
61321;Laerm;17737;52.586;13.284;2022-07-23T00:52:49;50.86;39.71;67.75;;
61321;Laerm;17737;52.586;13.284;2022-07-23T00:55:19;41.69;39.62;44.94;;
61321;Laerm;17737;52.586;13.284;2022-07-23T00:57:47;41.59;39.71;44.36;;
61321;Laerm;17737;52.586;13.284;2022-07-23T01:00:16;48.81;39.71;64.76;;
61321;Laerm;17737;52.586;13.284;2022-07-23T01:02:44;48.20;39.98;60.39;;
61321;Laerm;17737;52.586;13.284;2022-07-23T01:05:14;44.32;40.06;54.31;;
61321;Laerm;17737;52.586;13.284;2022-07-23T01:07:42;51.02;39.89;65.77;;
61321;Laerm;17737;52.586;13.284;2022-07-23T01:10:11;48.87;39.45;64.06;;
61321;Laerm;17737;52.586;13.284;2022-07-23T01:13:03;47.81;39.62;63.37;;
61321;Laerm;17737;52.586;13.284;2022-07-23T01:15:32;41.56;39.23;52.29;;
61321;Laerm;17737;52.586;13.284;2022-07-23T01:18:00;45.62;39.71;57.57;;
61321;Laerm;17737;52.586;13.284;2022-07-23T01:20:28;51.38;39.89;65.47;;
61321;Laerm;17737;52.586;13.284;2022-07-23T01:22:57;48.29;39.62;61.89;;
61321;Laerm;17737;52.586;13.284;2022-07-23T01:25:25;48.06;39.71;64.04;;
61321;Laerm;17737;52.586;13.284;2022-07-23T01:27:54;41.74;39.62;43.31;;
61321;Laerm;17737;52.586;13.284;2022-07-23T01:30:22;47.53;40.14;60.15;;
61321;Laerm;17737;52.586;13.284;2022-07-23T01:32:49;52.78;40.38;66.33;;
61321;Laerm;17737;52.586;13.284;2022-07-23T01:35:17;45.13;40.14;61.34;;
61321;Laerm;17737;52.586;13.284;2022-07-23T01:37:45;47.32;39.62;62.41;;
61321;Laerm;17737;52.586;13.284;2022-07-23T01:40:14;48.75;39.71;62.18;;
61321;Laerm;17737;52.586;13.284;2022-07-23T01:42:44;50.56;39.80;64.48;;
61321;Laerm;17737;52.586;13.284;2022-07-23T01:45:13;41.53;39.53;44.01;;
61321;Laerm;17737;52.586;13.284;2022-07-23T01:47:40;53.28;39.71;67.92;;
61321;Laerm;17737;52.586;13.284;2022-07-23T01:50:09;41.93;39.53;47.08;;
61321;Laerm;17737;52.586;13.284;2022-07-23T01:52:36;44.73;39.53;76.98;;
61321;Laerm;17737;52.586;13.284;2022-07-23T01:55:05;41.88;39.53;46.76;;
61321;Laerm;17737;52.586;13.284;2022-07-23T01:57:35;41.41;39.53;42.86;;
61321;Laerm;17737;52.586;13.284;2022-07-23T02:00:03;48.71;39.62;61.12;;
61321;Laerm;17737;52.586;13.284;2022-07-23T02:02:31;46.65;39.43;63.10;;
61321;Laerm;17737;52.586;13.284;2022-07-23T02:04:59;46.02;39.71;61.59;;
61321;Laerm;17737;52.586;13.284;2022-07-23T02:07:27;41.49;39.23;43.94;;
61321;Laerm;17737;52.586;13.284;2022-07-23T02:09:58;41.38;39.23;45.82;;
61321;Laerm;17737;52.586;13.284;2022-07-23T02:12:26;41.33;39.53;42.81;;
61321;Laerm;17737;52.586;13.284;2022-07-23T02:14:55;41.44;39.43;43.27;;
61321;Laerm;17737;52.586;13.284;2022-07-23T02:17:24;41.60;39.62;44.54;;
61321;Laerm;17737;52.586;13.284;2022-07-23T02:19:52;42.28;39.13;48.85;;
61321;Laerm;17737;52.586;13.284;2022-07-23T02:22:19;48.20;39.43;62.15;;
61321;Laerm;17737;52.586;13.284;2022-07-23T02:24:47;41.56;39.71;46.30;;
61321;Laerm;17737;52.586;13.284;2022-07-23T02:27:15;48.81;39.53;62.06;;
61321;Laerm;17737;52.586;13.284;2022-07-23T02:29:43;47.43;39.80;63.09;;
61321;Laerm;17737;52.586;13.284;2022-07-23T02:32:12;50.78;39.53;66.77;;
61321;Laerm;17737;52.586;13.284;2022-07-23T02:34:39;50.41;39.43;64.85;;
61321;Laerm;17737;52.586;13.284;2022-07-23T02:37:07;49.52;39.53;66.07;;
61321;Laerm;17737;52.586;13.284;2022-07-23T02:39:35;41.48;39.13;45.59;;
61321;Laerm;17737;52.586;13.284;2022-07-23T02:42:03;49.10;39.53;64.74;;
61321;Laerm;17737;52.586;13.284;2022-07-23T02:44:31;41.80;39.53;54.71;;
61321;Laerm;17737;52.586;13.284;2022-07-23T02:46:59;46.66;39.98;60.38;;
61321;Laerm;17737;52.586;13.284;2022-07-23T02:49:28;46.45;39.62;60.10;;
61321;Laerm;17737;52.586;13.284;2022-07-23T02:51:56;49.48;39.53;65.85;;
61321;Laerm;17737;52.586;13.284;2022-07-23T02:54:24;42.09;39.62;47.73;;
61321;Laerm;17737;52.586;13.284;2022-07-23T02:56:52;42.11;39.62;53.27;;
61321;Laerm;17737;52.586;13.284;2022-07-23T02:59:20;41.91;39.53;51.29;;
61321;Laerm;17737;52.586;13.284;2022-07-23T03:01:48;49.20;39.23;63.64;;
61321;Laerm;17737;52.586;13.284;2022-07-23T03:04:15;49.48;39.71;61.40;;
61321;Laerm;17737;52.586;13.284;2022-07-23T03:06:45;52.48;39.89;68.61;;
61321;Laerm;17737;52.586;13.284;2022-07-23T03:09:12;41.82;39.53;48.14;;
61321;Laerm;17737;52.586;13.284;2022-07-23T03:11:40;50.50;39.71;65.90;;
61321;Laerm;17737;52.586;13.284;2022-07-23T03:14:08;43.25;39.53;59.22;;
61321;Laerm;17737;52.586;13.284;2022-07-23T03:16:39;42.03;39.33;47.00;;
61321;Laerm;17737;52.586;13.284;2022-07-23T03:19:07;43.86;39.80;59.41;;
61321;Laerm;17737;52.586;13.284;2022-07-23T03:21:35;56.32;40.30;68.77;;
61321;Laerm;17737;52.586;13.284;2022-07-23T03:24:08;53.95;39.98;67.58;;
61321;Laerm;17737;52.586;13.284;2022-07-23T03:26:37;53.84;40.53;65.18;;
61321;Laerm;17737;52.586;13.284;2022-07-23T03:29:04;51.05;39.62;64.00;;
61321;Laerm;17737;52.586;13.284;2022-07-23T03:31:32;48.48;39.33;63.54;;
61321;Laerm;17737;52.586;13.284;2022-07-23T03:34:01;51.29;39.89;62.42;;
61321;Laerm;17737;52.586;13.284;2022-07-23T03:36:28;42.08;39.53;49.35;;
61321;Laerm;17737;52.586;13.284;2022-07-23T03:38:56;46.22;39.80;59.08;;
61321;Laerm;17737;52.586;13.284;2022-07-23T03:41:28;54.41;39.89;68.83;;
61321;Laerm;17737;52.586;13.284;2022-07-23T03:43:56;56.62;40.30;68.61;;
61321;Laerm;17737;52.586;13.284;2022-07-23T03:46:23;50.47;39.88;65.71;;
61321;Laerm;17737;52.586;13.284;2022-07-23T03:48:51;42.55;39.53;50.50;;
61321;Laerm;17737;52.586;13.284;2022-07-23T03:51:24;54.75;39.53;68.16;;
61321;Laerm;17737;52.586;13.284;2022-07-23T03:53:52;52.16;39.89;66.14;;
61321;Laerm;17737;52.586;13.284;2022-07-23T03:56:21;43.09;39.62;54.61;;
61321;Laerm;17737;52.586;13.284;2022-07-23T03:58:50;49.88;39.62;65.85;;
61321;Laerm;17737;52.586;13.284;2022-07-23T04:01:18;42.11;39.53;53.45;;
61321;Laerm;17737;52.586;13.284;2022-07-23T04:03:45;54.01;39.71;67.35;;
61321;Laerm;17737;52.586;13.284;2022-07-23T04:06:13;50.23;39.71;62.43;;
61321;Laerm;17737;52.586;13.284;2022-07-23T04:08:41;50.31;39.53;64.03;;
61321;Laerm;17737;52.586;13.284;2022-07-23T04:11:09;53.02;40.46;67.11;;
61321;Laerm;17737;52.586;13.284;2022-07-23T04:13:37;47.81;40.06;62.02;;
61321;Laerm;17737;52.586;13.284;2022-07-23T04:16:06;52.32;42.72;71.46;;
61321;Laerm;17737;52.586;13.284;2022-07-23T04:18:34;55.10;50.15;74.37;;
61321;Laerm;17737;52.586;13.284;2022-07-23T04:21:02;56.54;52.59;68.14;;
61321;Laerm;17737;52.586;13.284;2022-07-23T04:23:30;54.25;48.27;65.83;;
61321;Laerm;17737;52.586;13.284;2022-07-23T04:25:58;56.57;52.48;67.25;;
61321;Laerm;17737;52.586;13.284;2022-07-23T04:28:25;58.35;52.59;69.39;;
61321;Laerm;17737;52.586;13.284;2022-07-23T04:30:55;60.53;50.87;73.01;;
61321;Laerm;17737;52.586;13.284;2022-07-23T04:33:25;56.69;49.65;68.77;;
61321;Laerm;17737;52.586;13.284;2022-07-23T04:35:52;55.75;47.98;68.10;;
61321;Laerm;17737;52.586;13.284;2022-07-23T04:38:20;51.64;47.58;62.50;;
61321;Laerm;17737;52.586;13.284;2022-07-23T04:40:48;59.33;49.54;69.78;;
61321;Laerm;17737;52.586;13.284;2022-07-23T04:43:16;55.52;50.25;67.43;;
61321;Laerm;17737;52.586;13.284;2022-07-23T04:45:44;50.90;47.78;58.43;;
61321;Laerm;17737;52.586;13.284;2022-07-23T04:48:11;58.02;47.28;71.74;;
61321;Laerm;17737;52.586;13.284;2022-07-23T04:50:40;57.46;46.81;69.04;;
61321;Laerm;17737;52.586;13.284;2022-07-23T04:53:09;57.51;46.61;76.59;;
61321;Laerm;17737;52.586;13.284;2022-07-23T04:55:37;48.91;46.22;66.97;;
61321;Laerm;17737;52.586;13.284;2022-07-23T04:58:04;57.94;42.90;71.78;;
61321;Laerm;17737;52.586;13.284;2022-07-23T05:00:32;53.69;42.94;68.24;;
61321;Laerm;17737;52.586;13.284;2022-07-23T05:03:00;57.10;50.03;69.63;;
61321;Laerm;17737;52.586;13.284;2022-07-23T05:05:28;55.74;50.98;69.13;;
61321;Laerm;17737;52.586;13.284;2022-07-23T05:07:57;53.18;50.26;70.63;;
61321;Laerm;17737;52.586;13.284;2022-07-23T05:10:24;53.97;50.64;72.24;;
61321;Laerm;17737;52.586;13.284;2022-07-23T05:12:52;61.12;49.67;72.52;;
61321;Laerm;17737;52.586;13.284;2022-07-23T05:15:20;60.28;51.96;71.92;;
61321;Laerm;17737;52.586;13.284;2022-07-23T05:17:48;58.72;52.00;71.39;;
61321;Laerm;17737;52.586;13.284;2022-07-23T05:20:16;59.39;49.51;71.73;;
61321;Laerm;17737;52.586;13.284;2022-07-23T05:22:44;56.42;44.86;71.66;;
61321;Laerm;17737;52.586;13.284;2022-07-23T05:25:13;58.14;43.51;70.35;;
61321;Laerm;17737;52.586;13.284;2022-07-23T05:27:41;61.01;43.83;70.82;;
61321;Laerm;17737;52.586;13.284;2022-07-23T05:30:09;56.30;42.29;69.43;;
61321;Laerm;17737;52.586;13.284;2022-07-23T05:32:37;56.83;41.06;69.26;;
61321;Laerm;17737;52.586;13.284;2022-07-23T05:35:06;55.14;41.29;66.87;;
61321;Laerm;17737;52.586;13.284;2022-07-23T05:37:34;61.22;41.09;74.01;;
61321;Laerm;17737;52.586;13.284;2022-07-23T05:40:03;57.89;41.41;68.82;;
61321;Laerm;17737;52.586;13.284;2022-07-23T05:42:34;53.95;39.89;68.67;;
61321;Laerm;17737;52.586;13.284;2022-07-23T05:45:02;57.70;42.58;71.62;;
61321;Laerm;17737;52.586;13.284;2022-07-23T05:47:39;60.27;42.99;69.99;;
61321;Laerm;17737;52.586;13.284;2022-07-23T05:50:07;54.94;42.54;70.61;;
61321;Laerm;17737;52.586;13.284;2022-07-23T05:52:35;57.43;41.82;68.86;;
61321;Laerm;17737;52.586;13.284;2022-07-23T05:55:03;57.01;41.93;68.41;;
61321;Laerm;17737;52.586;13.284;2022-07-23T05:57:31;59.60;41.35;68.36;;
61321;Laerm;17737;52.586;13.284;2022-07-23T06:00:00;56.53;41.35;69.35;;
61321;Laerm;17737;52.586;13.284;2022-07-23T06:02:28;60.96;50.04;71.47;;
61321;Laerm;17737;52.586;13.284;2022-07-23T06:04:55;60.31;50.27;72.12;;
61321;Laerm;17737;52.586;13.284;2022-07-23T06:07:23;62.23;49.32;70.88;;
61321;Laerm;17737;52.586;13.284;2022-07-23T06:09:51;61.12;51.06;73.76;;
61321;Laerm;17737;52.586;13.284;2022-07-23T06:12:19;58.78;50.88;70.62;;
61321;Laerm;17737;52.586;13.284;2022-07-23T06:14:46;57.09;51.46;71.51;;
61321;Laerm;17737;52.586;13.284;2022-07-23T06:17:17;55.23;48.32;68.91;;
61321;Laerm;17737;52.586;13.284;2022-07-23T06:19:45;61.88;45.20;77.02;;
61321;Laerm;17737;52.586;13.284;2022-07-23T06:22:13;60.10;43.35;74.40;;
61321;Laerm;17737;52.586;13.284;2022-07-23T06:24:41;60.70;42.68;73.51;;
61321;Laerm;17737;52.586;13.284;2022-07-23T06:27:08;60.27;43.45;71.71;;
61321;Laerm;17737;52.586;13.284;2022-07-23T06:29:36;57.91;41.35;71.76;;
61321;Laerm;17737;52.586;13.284;2022-07-23T06:32:04;61.61;41.76;70.86;;
61321;Laerm;17737;52.586;13.284;2022-07-23T06:34:34;53.39;41.65;66.12;;
61321;Laerm;17737;52.586;13.284;2022-07-23T06:37:02;57.59;41.82;68.30;;
61321;Laerm;17737;52.586;13.284;2022-07-23T06:39:29;59.63;41.19;71.59;;
61321;Laerm;17737;52.586;13.284;2022-07-23T06:41:58;58.33;40.75;70.91;;
61321;Laerm;17737;52.586;13.284;2022-07-23T06:44:27;59.22;41.65;68.83;;
61321;Laerm;17737;52.586;13.284;2022-07-23T06:46:55;60.55;42.19;70.92;;
61321;Laerm;17737;52.586;13.284;2022-07-23T06:49:23;61.85;43.39;71.91;;
61321;Laerm;17737;52.586;13.284;2022-07-23T06:51:52;53.38;40.06;68.69;;
61321;Laerm;17737;52.586;13.284;2022-07-23T06:54:20;56.88;41.93;67.68;;
61321;Laerm;17737;52.586;13.284;2022-07-23T06:56:47;59.89;42.77;69.24;;
61321;Laerm;17737;52.586;13.284;2022-07-23T06:59:15;54.67;40.53;68.19;;
61321;Laerm;17737;52.586;13.284;2022-07-23T07:01:43;63.19;45.84;70.25;;
61321;Laerm;17737;52.586;13.284;2022-07-23T07:04:11;59.95;40.53;70.30;;
61321;Laerm;17737;52.586;13.284;2022-07-23T07:06:38;59.66;41.53;71.36;;
61321;Laerm;17737;52.586;13.284;2022-07-23T07:09:08;61.84;46.10;71.59;;
61321;Laerm;17737;52.586;13.284;2022-07-23T07:11:35;59.14;43.03;68.52;;
61321;Laerm;17737;52.586;13.284;2022-07-23T07:14:03;59.54;42.14;68.38;;
61321;Laerm;17737;52.586;13.284;2022-07-23T07:16:31;62.78;41.98;71.01;;
61321;Laerm;17737;52.586;13.284;2022-07-23T07:18:59;56.84;41.93;70.45;;
61321;Laerm;17737;52.586;13.284;2022-07-23T07:21:28;59.26;41.76;69.86;;
61321;Laerm;17737;52.586;13.284;2022-07-23T07:23:56;59.48;42.14;70.30;;
61321;Laerm;17737;52.586;13.284;2022-07-23T07:26:25;56.39;40.61;66.77;;
61321;Laerm;17737;52.586;13.284;2022-07-23T07:28:53;58.95;40.46;68.91;;
61321;Laerm;17737;52.586;13.284;2022-07-23T07:31:20;58.85;41.93;68.40;;
61321;Laerm;17737;52.586;13.284;2022-07-23T07:33:48;57.28;41.09;68.87;;
61321;Laerm;17737;52.586;13.284;2022-07-23T07:36:16;59.39;41.53;70.35;;
61321;Laerm;17737;52.586;13.284;2022-07-23T07:38:44;60.90;41.71;70.09;;
61321;Laerm;17737;52.586;13.284;2022-07-23T07:41:12;55.60;40.82;67.01;;
61321;Laerm;17737;52.586;13.284;2022-07-23T07:43:42;59.13;42.90;68.80;;
61321;Laerm;17737;52.586;13.284;2022-07-23T07:46:09;58.61;42.77;74.41;;
61321;Laerm;17737;52.586;13.284;2022-07-23T07:48:37;60.26;42.34;74.16;;
61321;Laerm;17737;52.586;13.284;2022-07-23T07:51:05;56.47;41.24;67.32;;
61321;Laerm;17737;52.586;13.284;2022-07-23T07:53:34;58.90;41.82;70.22;;
61321;Laerm;17737;52.586;13.284;2022-07-23T07:56:03;56.81;42.77;66.86;;
61321;Laerm;17737;52.586;13.284;2022-07-23T07:58:32;60.14;43.97;68.59;;
61321;Laerm;17737;52.586;13.284;2022-07-23T08:01:01;54.63;41.98;65.82;;
61321;Laerm;17737;52.586;13.284;2022-07-23T08:03:29;56.62;41.22;66.98;;
61321;Laerm;17737;52.586;13.284;2022-07-23T08:05:57;52.29;40.75;63.37;;
61321;Laerm;17737;52.586;13.284;2022-07-23T08:08:25;59.16;40.75;68.64;;
61321;Laerm;17737;52.586;13.284;2022-07-23T08:10:53;57.19;41.59;67.15;;
61321;Laerm;17737;52.586;13.284;2022-07-23T08:13:21;57.79;42.72;69.12;;
61321;Laerm;17737;52.586;13.284;2022-07-23T08:15:49;59.59;43.03;69.98;;
61321;Laerm;17737;52.586;13.284;2022-07-23T08:18:20;57.95;43.35;66.57;;
61321;Laerm;17737;52.586;13.284;2022-07-23T08:20:48;59.48;41.65;70.02;;
61321;Laerm;17737;52.586;13.284;2022-07-23T08:23:16;54.99;40.82;67.82;;
61321;Laerm;17737;52.586;13.284;2022-07-23T08:25:46;59.34;44.69;69.11;;
61321;Laerm;17737;52.586;13.284;2022-07-23T08:28:14;56.15;41.76;67.42;;
61321;Laerm;17737;52.586;13.284;2022-07-23T08:30:44;60.00;42.54;69.45;;
61321;Laerm;17737;52.586;13.284;2022-07-23T08:33:14;58.80;42.09;70.30;;
61321;Laerm;17737;52.586;13.284;2022-07-23T08:36:02;59.14;43.07;68.46;;
61321;Laerm;17737;52.586;13.284;2022-07-23T08:38:31;59.17;43.01;71.14;;
61321;Laerm;17737;52.586;13.284;2022-07-23T08:40:59;57.33;42.14;68.52;;
61321;Laerm;17737;52.586;13.284;2022-07-23T08:43:29;56.56;41.82;66.19;;
61321;Laerm;17737;52.586;13.284;2022-07-23T08:45:59;61.53;44.04;70.05;;
61321;Laerm;17737;52.586;13.284;2022-07-23T08:48:29;59.78;43.23;68.51;;
61321;Laerm;17737;52.586;13.284;2022-07-23T08:50:59;58.07;43.73;66.09;;
61321;Laerm;17737;52.586;13.284;2022-07-23T08:53:30;58.47;43.69;67.94;;
61321;Laerm;17737;52.586;13.284;2022-07-23T08:55:59;60.47;47.63;77.42;;
61321;Laerm;17737;52.586;13.284;2022-07-23T08:58:29;58.61;42.77;70.12;;
61321;Laerm;17737;52.586;13.284;2022-07-23T09:00:57;58.23;42.39;67.41;;
61321;Laerm;17737;52.586;13.284;2022-07-23T09:03:27;54.92;41.59;65.01;;
61321;Laerm;17737;52.586;13.284;2022-07-23T09:05:58;57.43;44.04;67.07;;
61321;Laerm;17737;52.586;13.284;2022-07-23T09:08:35;58.84;44.48;67.23;;
61321;Laerm;17737;52.586;13.284;2022-07-23T09:11:05;58.73;44.04;70.33;;
61321;Laerm;17737;52.586;13.284;2022-07-23T09:13:37;53.55;42.37;62.95;;
61321;Laerm;17737;52.586;13.284;2022-07-23T09:16:07;58.60;42.39;71.11;;
61321;Laerm;17737;52.586;13.284;2022-07-23T09:18:38;58.46;46.60;69.71;;
61321;Laerm;17737;52.586;13.284;2022-07-23T09:21:11;56.61;43.76;67.24;;
61321;Laerm;17737;52.586;13.284;2022-07-23T09:23:43;59.25;46.06;68.06;;
61321;Laerm;17737;52.586;13.284;2022-07-23T09:26:19;57.86;44.97;66.02;;
61321;Laerm;17737;52.586;13.284;2022-07-23T09:28:51;59.61;43.07;67.04;;
61321;Laerm;17737;52.586;13.284;2022-07-23T09:31:20;55.62;42.99;68.01;;
61321;Laerm;17737;52.586;13.284;2022-07-23T09:33:48;58.40;42.14;67.65;;
61321;Laerm;17737;52.586;13.284;2022-07-23T09:36:27;52.22;41.47;64.43;;
61321;Laerm;17737;52.586;13.284;2022-07-23T09:38:56;55.50;42.04;65.33;;
61321;Laerm;17737;52.586;13.284;2022-07-23T09:41:24;54.66;42.14;64.43;;
61321;Laerm;17737;52.586;13.284;2022-07-23T09:43:55;60.74;52.95;77.33;;
61321;Laerm;17737;52.586;13.284;2022-07-23T09:46:26;59.97;53.60;67.89;;
61321;Laerm;17737;52.586;13.284;2022-07-23T09:48:55;61.62;52.56;70.93;;
61321;Laerm;17737;52.586;13.284;2022-07-23T09:51:24;61.45;52.56;70.17;;
61321;Laerm;17737;52.586;13.284;2022-07-23T09:54:00;61.29;52.28;69.62;;
61321;Laerm;17737;52.586;13.284;2022-07-23T09:56:30;58.85;41.82;68.97;;
61321;Laerm;17737;52.586;13.284;2022-07-23T09:59:00;61.33;53.23;68.14;;
61321;Laerm;17737;52.586;13.284;2022-07-23T10:01:31;59.35;43.35;69.17;;
61321;Laerm;17737;52.586;13.284;2022-07-23T10:04:01;59.01;44.80;69.02;;
61321;Laerm;17737;52.586;13.284;2022-07-23T10:06:30;58.38;42.39;68.11;;
61321;Laerm;17737;52.586;13.284;2022-07-23T10:09:00;56.91;41.47;66.30;;
61321;Laerm;17737;52.586;13.284;2022-07-23T10:11:30;59.69;44.39;75.04;;
61321;Laerm;17737;52.586;13.284;2022-07-23T10:13:59;57.89;43.76;69.18;;
61321;Laerm;17737;52.586;13.284;2022-07-23T10:16:29;58.29;44.54;68.02;;
61321;Laerm;17737;52.586;13.284;2022-07-23T10:18:57;58.62;43.69;67.54;;
61321;Laerm;17737;52.586;13.284;2022-07-23T10:21:34;57.46;42.19;69.60;;
61321;Laerm;17737;52.586;13.284;2022-07-23T10:24:15;57.30;43.15;68.91;;
61321;Laerm;17737;52.586;13.284;2022-07-23T10:26:57;57.28;42.58;67.09;;
61321;Laerm;17737;52.586;13.284;2022-07-23T10:29:40;60.42;42.68;67.67;;
61321;Laerm;17737;52.586;13.284;2022-07-23T10:32:21;56.96;43.23;65.67;;
61321;Laerm;17737;52.586;13.284;2022-07-23T10:34:59;56.31;43.62;73.08;;
61321;Laerm;17737;52.586;13.284;2022-07-23T10:37:37;58.91;43.23;71.30;;
61321;Laerm;17737;52.586;13.284;2022-07-23T10:40:12;56.22;42.63;68.29;;
61321;Laerm;17737;52.586;13.284;2022-07-23T10:42:40;56.93;41.53;67.50;;
61321;Laerm;17737;52.586;13.284;2022-07-23T10:45:29;59.28;43.23;81.86;;
61321;Laerm;17737;52.586;13.284;2022-07-23T10:48:12;58.07;42.34;75.71;;
61321;Laerm;17737;52.586;13.284;2022-07-23T10:50:42;57.23;42.63;67.23;;
61321;Laerm;17737;52.586;13.284;2022-07-23T10:53:15;60.53;44.33;75.41;;
61321;Laerm;17737;52.586;13.284;2022-07-23T10:55:50;58.43;44.23;69.43;;
61321;Laerm;17737;52.586;13.284;2022-07-23T11:01:31;56.72;42.58;66.65;;
61321;Laerm;17737;52.586;13.284;2022-07-23T11:04:00;57.42;44.80;71.95;;
61321;Laerm;17737;52.586;13.284;2022-07-23T11:09:30;60.30;45.87;67.98;;
61321;Laerm;17737;52.586;13.284;2022-07-23T11:12:35;58.13;43.11;67.03;;
61321;Laerm;17737;52.586;13.284;2022-07-23T11:15:06;57.07;42.68;65.50;;
61321;Laerm;17737;52.586;13.284;2022-07-23T11:17:36;59.14;46.40;68.65;;
61321;Laerm;17737;52.586;13.284;2022-07-23T11:20:19;58.92;45.23;73.62;;
61321;Laerm;17737;52.586;13.284;2022-07-23T11:22:50;58.82;41.71;68.03;;
61321;Laerm;17737;52.586;13.284;2022-07-23T11:25:34;54.97;41.58;65.60;;
61321;Laerm;17737;52.586;13.284;2022-07-23T11:28:11;55.68;43.35;68.16;;
61321;Laerm;17737;52.586;13.284;2022-07-23T11:30:42;57.84;43.51;67.42;;
61321;Laerm;17737;52.586;13.284;2022-07-23T11:33:19;56.43;43.54;65.50;;
61321;Laerm;17737;52.586;13.284;2022-07-23T11:35:49;59.53;44.57;70.94;;
61321;Laerm;17737;52.586;13.284;2022-07-23T11:38:19;56.83;43.51;71.17;;
61321;Laerm;17737;52.586;13.284;2022-07-23T11:40:49;59.35;44.91;66.73;;
61321;Laerm;17737;52.586;13.284;2022-07-23T11:43:20;57.66;44.23;66.68;;
61321;Laerm;17737;52.586;13.284;2022-07-23T11:45:50;57.32;45.43;65.51;;
61321;Laerm;17737;52.586;13.284;2022-07-23T11:48:21;59.50;44.69;70.53;;
61321;Laerm;17737;52.586;13.284;2022-07-23T11:50:50;57.92;42.14;66.26;;
61321;Laerm;17737;52.586;13.284;2022-07-23T11:53:22;57.93;42.49;67.09;;
61321;Laerm;17737;52.586;13.284;2022-07-23T11:55:50;58.18;43.58;66.58;;
61321;Laerm;17737;52.586;13.284;2022-07-23T11:58:19;59.46;42.39;84.11;;
61321;Laerm;17737;52.586;13.284;2022-07-23T12:00:47;57.70;42.94;69.37;;
61321;Laerm;17737;52.586;13.284;2022-07-23T12:03:17;56.40;43.51;68.37;;
61321;Laerm;17737;52.586;13.284;2022-07-23T12:05:45;57.62;43.65;65.85;;
61321;Laerm;17737;52.586;13.284;2022-07-23T12:08:13;56.94;42.24;67.64;;
61321;Laerm;17737;52.586;13.284;2022-07-23T12:10:42;58.49;44.07;66.65;;
61321;Laerm;17737;52.586;13.284;2022-07-23T12:13:12;58.92;44.07;69.27;;
61321;Laerm;17737;52.586;13.284;2022-07-23T12:15:44;61.38;46.76;75.94;;
61321;Laerm;17737;52.586;13.284;2022-07-23T12:18:14;60.08;44.89;70.74;;
61321;Laerm;17737;52.586;13.284;2022-07-23T12:20:43;56.11;43.35;63.69;;
61321;Laerm;17737;52.586;13.284;2022-07-23T12:23:14;57.83;43.73;68.60;;
61321;Laerm;17737;52.586;13.284;2022-07-23T12:25:48;56.71;44.89;65.19;;
61321;Laerm;17737;52.586;13.284;2022-07-23T12:28:17;57.84;44.97;65.53;;
61321;Laerm;17737;52.586;13.284;2022-07-23T12:30:49;59.68;45.43;75.57;;
61321;Laerm;17737;52.586;13.284;2022-07-23T12:33:24;58.80;45.91;71.25;;
61321;Laerm;17737;52.586;13.284;2022-07-23T12:35:53;58.48;43.58;68.90;;
61321;Laerm;17737;52.586;13.284;2022-07-23T12:38:23;58.24;43.11;69.39;;
61321;Laerm;17737;52.586;13.284;2022-07-23T12:40:52;58.44;43.54;66.54;;
61321;Laerm;17737;52.586;13.284;2022-07-23T12:43:23;58.17;43.62;67.01;;
61321;Laerm;17737;52.586;13.284;2022-07-23T12:45:54;59.38;45.25;69.69;;
61321;Laerm;17737;52.586;13.284;2022-07-23T12:48:24;57.74;42.24;76.06;;
61321;Laerm;17737;52.586;13.284;2022-07-23T12:50:56;59.75;46.12;74.67;;
61321;Laerm;17737;52.586;13.284;2022-07-23T12:53:27;58.44;45.10;72.52;;
61321;Laerm;17737;52.586;13.284;2022-07-23T12:56:05;59.23;45.59;66.02;;
61321;Laerm;17737;52.586;13.284;2022-07-23T12:58:44;59.76;44.54;73.10;;
61321;Laerm;17737;52.586;13.284;2022-07-23T13:01:26;59.46;42.39;69.31;;
61321;Laerm;17737;52.586;13.284;2022-07-23T13:03:59;59.88;45.78;69.88;;
61321;Laerm;17737;52.586;13.284;2022-07-23T13:06:32;58.61;44.27;66.43;;
61321;Laerm;17737;52.586;13.284;2022-07-23T13:09:00;58.89;43.54;65.25;;
61321;Laerm;17737;52.586;13.284;2022-07-23T13:11:29;57.25;44.01;67.86;;
61321;Laerm;17737;52.586;13.284;2022-07-23T13:13:58;56.98;44.91;65.01;;
61321;Laerm;17737;52.586;13.284;2022-07-23T13:16:30;58.99;45.40;67.24;;
61321;Laerm;17737;52.586;13.284;2022-07-23T13:19:00;60.24;45.02;68.20;;
61321;Laerm;17737;52.586;13.284;2022-07-23T13:21:29;58.64;44.48;69.38;;
61321;Laerm;17737;52.586;13.284;2022-07-23T13:23:57;59.81;47.90;67.78;;
61321;Laerm;17737;52.586;13.284;2022-07-23T13:26:25;58.07;45.91;68.75;;
61321;Laerm;17737;52.586;13.284;2022-07-23T13:28:54;56.61;42.63;68.32;;
61321;Laerm;17737;52.586;13.284;2022-07-23T13:31:22;57.56;42.81;67.04;;
61321;Laerm;17737;52.586;13.284;2022-07-23T13:33:51;58.00;42.94;66.65;;
61321;Laerm;17737;52.586;13.284;2022-07-23T13:36:19;58.36;44.48;67.37;;
61321;Laerm;17737;52.586;13.284;2022-07-23T13:38:47;58.52;47.05;70.06;;
61321;Laerm;17737;52.586;13.284;2022-07-23T13:41:16;58.13;45.89;68.18;;
61321;Laerm;17737;52.586;13.284;2022-07-23T13:43:44;57.48;43.23;64.50;;
61321;Laerm;17737;52.586;13.284;2022-07-23T13:46:13;59.22;44.60;68.00;;
61321;Laerm;17737;52.586;13.284;2022-07-23T13:48:41;58.23;42.44;67.05;;
61321;Laerm;17737;52.586;13.284;2022-07-23T13:51:10;56.60;43.65;65.84;;